Caribe Navigator — V2PW6 — position and weather

sailwx.info

Track history (hours):
 
Tides and Currents Weather Stations Pressure Air Temp Water Temp Dewpoint Dewpoint Depression Visibility Wind Speed Wind Dir Waves Ship Positions

Caribe Navigator

Last reported at 2014-Nov-27 11:22 UTC. Time now 2014-Nov-28 08:36 UTC.
Position N 25°33' W 080°02'.

Length 100 m; draft 4.9 m.

Type: Cargo ship. MMSI: 305289000.

Date/timePositionNaut miles runAvg speedWind from/ knotsBaromVisibWave heightAir tempDewpointWater temp
2014-Nov-27 11:22N 25°33' W 080°02'911.1
2014-Nov-27 10:33N 25°42' W 080°02'1312.8
2014-Nov-27 09:33N 25°54' W 080°04'1111.5
2014-Nov-27 08:33N 26°06' W 080°07'1 0.5
2014-Nov-27 07:31N 26°05' W 080°07'0 0.0
2014-Nov-27 06:31N 26°05' W 080°07'0 0.0
2014-Nov-27 05:31N 26°05' W 080°07'0 0.0
2014-Nov-27 04:31N 26°05' W 080°07'0 0.0
2014-Nov-27 03:31N 26°05' W 080°07'0 0.0
2014-Nov-27 02:22N 26°05' W 080°07'0 0.0
2014-Nov-27 01:22N 26°05' W 080°07'0 0.0
2014-Nov-27 00:25N 26°05' W 080°07'0 0.0
2014-Nov-26 23:25N 26°05' W 080°07'0 0.0
2014-Nov-26 22:25N 26°05' W 080°07'0 0.0
2014-Nov-26 21:25N 26°05' W 080°07'0 0.0
2014-Nov-26 20:25N 26°05' W 080°07'0 0.0
2014-Nov-26 19:28N 26°05' W 080°07'3 3.3
2014-Nov-26 18:34N 26°04' W 080°04'1414.1
2014-Nov-26 17:33N 25°50' W 080°02'  
2014-Nov-21 07:32N 25°03' W 080°11'3410.8
2014-Nov-21 04:24N 25°36' W 080°02'910.7
2014-Nov-21 03:33N 25°45' W 080°02'1212.1
2014-Nov-21 02:33N 25°57' W 080°04'9 9.0
2014-Nov-21 01:33N 26°05' W 080°07'0 0.0
2014-Nov-21 00:33N 26°05' W 080°07'0 0.0
2014-Nov-20 23:33N 26°05' W 080°07'0 0.0
2014-Nov-20 22:24N 26°05' W 080°07'0 0.0
2014-Nov-20 21:24N 26°05' W 080°07'0 0.0
2014-Nov-20 20:27N 26°05' W 080°07'0 0.0
2014-Nov-20 19:27N 26°05' W 080°07'0 0.0
2014-Nov-20 18:27N 26°05' W 080°07'0 0.0
2014-Nov-20 17:27N 26°05' W 080°07'0 0.0
2014-Nov-20 16:27N 26°05' W 080°07'0 0.0
2014-Nov-20 15:30N 26°05' W 080°07'0 0.0
2014-Nov-20 14:30N 26°05' W 080°07'0 0.0
2014-Nov-20 13:30N 26°05' W 080°07'0 0.0
2014-Nov-20 12:30N 26°05' W 080°07'0 0.0
2014-Nov-20 11:30N 26°05' W 080°07'0 0.0
2014-Nov-20 10:33N 26°05' W 080°07'0 0.0
2014-Nov-20 09:33N 26°05' W 080°07'0 0.0
2014-Nov-20 08:33N 26°05' W 080°07'0 0.0
2014-Nov-20 07:33N 26°05' W 080°07'0 0.0
2014-Nov-20 06:33N 26°05' W 080°07'0 0.0
2014-Nov-20 05:33N 26°05' W 080°07'0 0.0
2014-Nov-20 04:33N 26°05' W 080°07'0 0.0
2014-Nov-20 03:33N 26°05' W 080°07'0 0.0
2014-Nov-20 02:33N 26°05' W 080°07'0 0.0
2014-Nov-20 01:33N 26°05' W 080°07'0 0.0
2014-Nov-20 00:33N 26°05' W 080°07'0 0.0
2014-Nov-19 23:33N 26°05' W 080°07'0 0.0
2014-Nov-19 22:33N 26°05' W 080°07'0 0.0
2014-Nov-19 21:24N 26°05' W 080°07'4 5.0
2014-Nov-19 20:33N 26°02' W 080°04'1514.6
2014-Nov-19 19:33N 25°48' W 080°01'  
Track history (hours):
 
Tides and Currents Weather Stations Pressure Air Temp Water Temp Dewpoint Dewpoint Depression Visibility Wind Speed Wind Dir Waves Ship Positions

Caribe Navigator

Last reported at 2014-Nov-27 11:22 UTC. Time now 2014-Nov-28 08:36 UTC.
Position N 25°33' W 080°02'.

Length 100 m; draft 4.9 m.

Type: Cargo ship. MMSI: 305289000.

Date/timePositionNaut miles runAvg speedWind from/ knotsBaromVisibWave heightAir tempDewpointWater temp
2014-Nov-27 11:22N 25°33' W 080°02'911.1
2014-Nov-27 10:33N 25°42' W 080°02'1312.8
2014-Nov-27 09:33N 25°54' W 080°04'1111.5
2014-Nov-27 08:33N 26°06' W 080°07'1 0.5
2014-Nov-27 07:31N 26°05' W 080°07'0 0.0
2014-Nov-27 06:31N 26°05' W 080°07'0 0.0
2014-Nov-27 05:31N 26°05' W 080°07'0 0.0
2014-Nov-27 04:31N 26°05' W 080°07'0 0.0
2014-Nov-27 03:31N 26°05' W 080°07'0 0.0
2014-Nov-27 02:22N 26°05' W 080°07'0 0.0
2014-Nov-27 01:22N 26°05' W 080°07'0 0.0
2014-Nov-27 00:25N 26°05' W 080°07'0 0.0
2014-Nov-26 23:25N 26°05' W 080°07'0 0.0
2014-Nov-26 22:25N 26°05' W 080°07'0 0.0
2014-Nov-26 21:25N 26°05' W 080°07'0 0.0
2014-Nov-26 20:25N 26°05' W 080°07'0 0.0
2014-Nov-26 19:28N 26°05' W 080°07'3 3.3
2014-Nov-26 18:34N 26°04' W 080°04'1414.1
2014-Nov-26 17:33N 25°50' W 080°02'  
2014-Nov-21 07:32N 25°03' W 080°11'3410.8
2014-Nov-21 04:24N 25°36' W 080°02'910.7
2014-Nov-21 03:33N 25°45' W 080°02'1212.1
2014-Nov-21 02:33N 25°57' W 080°04'9 9.0
2014-Nov-21 01:33N 26°05' W 080°07'0 0.0
2014-Nov-21 00:33N 26°05' W 080°07'0 0.0
2014-Nov-20 23:33N 26°05' W 080°07'0 0.0
2014-Nov-20 22:24N 26°05' W 080°07'0 0.0
2014-Nov-20 21:24N 26°05' W 080°07'0 0.0
2014-Nov-20 20:27N 26°05' W 080°07'0 0.0
2014-Nov-20 19:27N 26°05' W 080°07'0 0.0
2014-Nov-20 18:27N 26°05' W 080°07'0 0.0
2014-Nov-20 17:27N 26°05' W 080°07'0 0.0
2014-Nov-20 16:27N 26°05' W 080°07'0 0.0
2014-Nov-20 15:30N 26°05' W 080°07'0 0.0
2014-Nov-20 14:30N 26°05' W 080°07'0 0.0
2014-Nov-20 13:30N 26°05' W 080°07'0 0.0
2014-Nov-20 12:30N 26°05' W 080°07'0 0.0
2014-Nov-20 11:30N 26°05' W 080°07'0 0.0
2014-Nov-20 10:33N 26°05' W 080°07'0 0.0
2014-Nov-20 09:33N 26°05' W 080°07'0 0.0
2014-Nov-20 08:33N 26°05' W 080°07'0 0.0
2014-Nov-20 07:33N 26°05' W 080°07'0 0.0
2014-Nov-20 06:33N 26°05' W 080°07'0 0.0
2014-Nov-20 05:33N 26°05' W 080°07'0 0.0
2014-Nov-20 04:33N 26°05' W 080°07'0 0.0
2014-Nov-20 03:33N 26°05' W 080°07'0 0.0
2014-Nov-20 02:33N 26°05' W 080°07'0 0.0
2014-Nov-20 01:33N 26°05' W 080°07'0 0.0
2014-Nov-20 00:33N 26°05' W 080°07'0 0.0
2014-Nov-19 23:33N 26°05' W 080°07'0 0.0
2014-Nov-19 22:33N 26°05' W 080°07'0 0.0
2014-Nov-19 21:24N 26°05' W 080°07'4 5.0
2014-Nov-19 20:33N 26°02' W 080°04'1514.6
2014-Nov-19 19:33N 25°48' W 080°01'  

Dump ship's entire track history